Alkabo, North Dakota
Current Conditions -  °F | °C
As of 7:52 PM on Tuesday 21 Oct 2014 (Local Time) from KISN Reporting Station
Haze Haze  
Wind Chill: 53°   Ceiling: Unl
Heat Index: 53°   Visibility: 5mi
Dew Point: 42°   Wind: 3mph
Humidity: 66%   Direction: 10°N
Pressure: 29.57"   Gusts: NA
Location:  48.5901°N, 103.922°W
Report Text: KISN 220052Z AUTO 01003KT 5SM HZ CLR 12/06 A2957 RMK AO2 SLP024 T01170056
Loading
Personal Weather Stations






























Interactive Weather Map
Tropical Storm Tracking
New forecast layout! Learn more

10-Day Weather Forecast

Advertisements
Track Severe Weather on mobile